createdAt,value
2023-10-18T00:00:26.890Z,5.40
2023-10-18T00:02:56.309Z,5.40
2023-10-18T00:05:26.863Z,5.30
2023-10-18T00:07:58.809Z,5.30
2023-10-18T00:10:28.455Z,5.20
2023-10-18T00:12:57.384Z,5.10
2023-10-18T00:15:25.966Z,5.10
2023-10-18T00:17:54.394Z,5.10
2023-10-18T00:20:25.305Z,5.00
2023-10-18T00:22:54.539Z,4.90
2023-10-18T00:25:24.597Z,4.90
2023-10-18T00:27:52.932Z,4.90
2023-10-18T00:30:21.190Z,4.80
2023-10-18T00:32:49.997Z,4.70
2023-10-18T00:35:22.578Z,4.70
2023-10-18T00:37:56.285Z,4.70
2023-10-18T00:40:35.322Z,4.70
2023-10-18T00:43:08.672Z,4.70
2023-10-18T00:45:42.308Z,4.70
2023-10-18T00:48:12.409Z,4.70
2023-10-18T00:50:44.346Z,4.60
2023-10-18T00:53:18.608Z,4.60
2023-10-18T00:55:54.267Z,4.60
2023-10-18T00:58:24.179Z,4.60
2023-10-18T01:00:52.958Z,4.60
2023-10-18T01:03:31.050Z,4.60
2023-10-18T01:06:00.792Z,4.50
2023-10-18T01:08:31.652Z,4.50
2023-10-18T01:11:08.092Z,4.60
2023-10-18T01:13:38.937Z,4.60
2023-10-18T01:16:14.880Z,4.50
2023-10-18T01:18:45.427Z,4.50
2023-10-18T01:21:19.055Z,4.50
2023-10-18T01:23:52.272Z,4.40
2023-10-18T01:26:23.806Z,4.40
2023-10-18T01:28:53.486Z,4.40
2023-10-18T01:31:22.305Z,4.40
2023-10-18T01:33:52.139Z,4.30
2023-10-18T01:36:23.200Z,4.30
2023-10-18T01:38:54.414Z,4.30
2023-10-18T01:41:28.787Z,4.30
2023-10-18T01:44:00.314Z,4.30
2023-10-18T01:46:31.232Z,4.30
2023-10-18T01:49:00.409Z,4.30
2023-10-18T01:51:29.224Z,4.30
2023-10-18T01:54:03.883Z,4.30
2023-10-18T01:56:34.421Z,4.20
2023-10-18T01:59:09.224Z,4.20
2023-10-18T02:01:37.595Z,4.10
2023-10-18T02:04:12.866Z,4.10
2023-10-18T02:06:42.180Z,4.10
2023-10-18T02:09:13.885Z,4.10
2023-10-18T02:11:44.721Z,4.00
2023-10-18T02:14:15.085Z,4.00
2023-10-18T02:16:46.953Z,4.00
2023-10-18T02:19:17.804Z,4.00
2023-10-18T02:21:46.519Z,4.00
2023-10-18T02:24:14.924Z,4.00
2023-10-18T02:26:55.080Z,4.00
2023-10-18T02:29:24.240Z,3.90
2023-10-18T02:31:54.081Z,3.90
2023-10-18T02:34:29.967Z,3.90
2023-10-18T02:36:59.832Z,3.90
2023-10-18T02:39:34.488Z,3.80
2023-10-18T02:42:05.727Z,3.80
2023-10-18T02:44:36.313Z,3.80
2023-10-18T02:47:12.241Z,3.80
2023-10-18T02:49:40.531Z,3.80
2023-10-18T02:52:11.428Z,3.80
2023-10-18T02:54:41.065Z,3.80
2023-10-18T02:57:14.607Z,3.80
2023-10-18T02:59:44.978Z,3.80
2023-10-18T03:02:15.882Z,3.70
2023-10-18T03:04:45.283Z,3.70
2023-10-18T03:07:15.546Z,3.70
2023-10-18T03:09:51.107Z,3.70
2023-10-18T03:12:23.458Z,3.60
2023-10-18T03:14:58.375Z,3.60
2023-10-18T03:17:30.084Z,3.60
2023-10-18T03:20:02.472Z,3.50
2023-10-18T03:22:32.446Z,3.50
2023-10-18T03:25:02.103Z,3.50
2023-10-18T03:27:34.767Z,3.50
2023-10-18T03:30:14.142Z,3.50
2023-10-18T03:32:42.476Z,3.50
2023-10-18T03:35:14.242Z,3.50
2023-10-18T03:37:44.352Z,3.50
2023-10-18T03:40:21.872Z,3.50
2023-10-18T03:42:56.297Z,3.40
2023-10-18T03:45:45.361Z,3.50
2023-10-18T03:48:24.645Z,3.50
2023-10-18T03:50:56.209Z,3.50
2023-10-18T03:53:24.592Z,3.40
2023-10-18T03:55:57.593Z,3.30
2023-10-18T03:58:27.843Z,3.30
2023-10-18T04:00:57.706Z,3.30
2023-10-18T04:03:30.360Z,3.30
2023-10-18T04:06:08.487Z,3.20
2023-10-18T04:08:37.712Z,3.20
2023-10-18T04:11:07.682Z,3.20
2023-10-18T04:13:37.546Z,3.10
2023-10-18T04:16:11.739Z,3.10
2023-10-18T04:18:42.974Z,3.10
2023-10-18T04:21:15.856Z,3.00
2023-10-18T04:23:47.484Z,3.00
2023-10-18T04:26:20.618Z,3.00
2023-10-18T04:28:55.728Z,3.10
2023-10-18T04:31:24.108Z,3.10
2023-10-18T04:33:54.430Z,3.10
2023-10-18T04:36:23.551Z,3.10
2023-10-18T04:38:52.805Z,3.10
2023-10-18T04:41:28.339Z,3.20
2023-10-18T04:44:02.400Z,3.20
2023-10-18T04:46:31.682Z,3.20
2023-10-18T04:49:17.457Z,3.20
2023-10-18T04:51:46.285Z,3.20
2023-10-18T04:54:18.558Z,3.20
2023-10-18T04:56:50.276Z,3.10
2023-10-18T04:59:31.239Z,3.20
2023-10-18T05:02:00.359Z,3.20
2023-10-18T05:04:30.996Z,3.30
2023-10-18T05:07:02.058Z,3.20
2023-10-18T05:09:35.710Z,3.20
2023-10-18T05:12:18.141Z,3.30
2023-10-18T05:14:55.045Z,3.20
2023-10-18T05:17:25.172Z,3.20
2023-10-18T05:19:57.043Z,3.10
2023-10-18T05:22:26.924Z,3.10
2023-10-18T05:25:12.554Z,3.00
2023-10-18T05:27:47.180Z,3.00
2023-10-18T05:30:18.249Z,2.80
2023-10-18T05:33:04.181Z,2.80
2023-10-18T05:35:35.168Z,2.80
2023-10-18T05:38:20.334Z,2.70
2023-10-18T05:40:57.337Z,2.70
2023-10-18T05:43:31.554Z,2.70
2023-10-18T05:46:08.926Z,2.70
2023-10-18T05:48:42.586Z,2.70
2023-10-18T05:51:37.459Z,2.70
2023-10-18T05:54:08.178Z,2.70
2023-10-18T05:56:36.543Z,2.60
2023-10-18T05:59:29.122Z,2.70
2023-10-18T06:02:01.584Z,2.70
2023-10-18T06:04:39.215Z,2.70
2023-10-18T06:07:11.131Z,2.70
2023-10-18T06:09:56.434Z,2.70
2023-10-18T06:12:25.601Z,2.70
2023-10-18T06:14:59.402Z,2.70
2023-10-18T06:17:47.562Z,2.80
2023-10-18T06:20:25.266Z,2.80
2023-10-18T06:22:55.126Z,2.90
2023-10-18T06:25:28.022Z,2.90
2023-10-18T06:27:56.382Z,3.00
2023-10-18T06:30:26.724Z,3.10
2023-10-18T06:32:56.653Z,3.10
2023-10-18T06:35:29.176Z,3.10
2023-10-18T06:37:57.414Z,3.30
2023-10-18T06:40:50.611Z,3.40
2023-10-18T06:43:27.505Z,3.50
2023-10-18T06:45:56.733Z,3.80
2023-10-18T06:48:30.280Z,4.00
2023-10-18T06:50:59.520Z,4.10
2023-10-18T06:53:28.126Z,4.30
2023-10-18T06:56:02.438Z,4.40
2023-10-18T06:58:43.558Z,4.50
2023-10-18T07:01:21.108Z,4.70
2023-10-18T07:03:51.545Z,4.90
2023-10-18T07:06:25.150Z,5.30
2023-10-18T07:08:54.122Z,5.50
2023-10-18T07:11:37.849Z,5.70
2023-10-18T07:14:14.099Z,5.90
2023-10-18T07:16:44.082Z,6.20
2023-10-18T07:19:33.841Z,6.50
2023-10-18T07:22:07.596Z,6.80
2023-10-18T07:24:38.228Z,7.30
2023-10-18T07:27:10.272Z,7.60
2023-10-18T07:29:38.719Z,7.90
2023-10-18T07:32:14.323Z,8.10
2023-10-18T07:34:44.728Z,8.40
2023-10-18T07:37:26.259Z,8.40
2023-10-18T07:39:58.938Z,8.30
2023-10-18T07:42:28.880Z,8.40
2023-10-18T07:45:04.983Z,8.40
2023-10-18T07:47:39.792Z,8.60
2023-10-18T07:50:35.760Z,8.70
2023-10-18T07:53:05.906Z,8.80
2023-10-18T07:55:39.094Z,9.00
2023-10-18T07:58:18.850Z,9.30
2023-10-18T08:01:09.376Z,9.60
2023-10-18T08:03:39.534Z,9.40
2023-10-18T08:06:17.148Z,9.20
2023-10-18T08:08:48.298Z,9.10
2023-10-18T08:11:16.993Z,9.00
2023-10-18T08:13:47.335Z,8.90
2023-10-18T08:16:21.653Z,8.90
2023-10-18T08:18:54.676Z,8.90
2023-10-18T08:21:38.540Z,9.00
2023-10-18T08:24:20.578Z,8.80
2023-10-18T08:26:49.615Z,8.70
2023-10-18T08:29:18.799Z,8.70
2023-10-18T08:31:57.024Z,8.70
2023-10-18T08:34:25.846Z,8.60
2023-10-18T08:37:03.837Z,8.60
2023-10-18T08:39:32.582Z,8.70
2023-10-18T08:42:09.277Z,9.00
2023-10-18T08:44:39.793Z,9.30
2023-10-18T08:47:18.008Z,9.70
2023-10-18T08:49:52.513Z,9.80
2023-10-18T08:52:25.196Z,10.40
2023-10-18T08:54:54.991Z,10.70
2023-10-18T08:57:35.954Z,10.70
2023-10-18T09:00:40.836Z,10.70
2023-10-18T09:03:09.906Z,10.60
2023-10-18T09:05:38.774Z,10.80
2023-10-18T09:08:10.247Z,11.30
2023-10-18T09:10:48.548Z,11.80
2023-10-18T09:13:39.236Z,12.20
2023-10-18T09:16:12.762Z,12.30
2023-10-18T09:18:41.442Z,12.40
2023-10-18T09:21:18.685Z,12.80
2023-10-18T09:24:00.429Z,12.60
2023-10-18T09:26:37.035Z,12.50
2023-10-18T09:29:09.601Z,12.10
2023-10-18T09:31:51.431Z,12.20
2023-10-18T09:34:20.285Z,12.20
2023-10-18T09:36:57.734Z,12.00
2023-10-18T09:39:38.982Z,11.90
2023-10-18T09:42:13.755Z,11.80
2023-10-18T09:44:43.634Z,11.80
2023-10-18T09:47:12.245Z,12.00
2023-10-18T09:49:42.858Z,12.20
2023-10-18T09:52:14.094Z,12.30
2023-10-18T09:54:51.511Z,12.40
2023-10-18T09:57:25.957Z,12.60
2023-10-18T09:59:57.054Z,12.80
2023-10-18T10:02:27.052Z,13.00
2023-10-18T10:04:57.008Z,13.20
2023-10-18T10:07:38.545Z,13.40
2023-10-18T10:10:10.921Z,13.30
2023-10-18T10:12:43.643Z,13.30
2023-10-18T10:15:15.708Z,13.30
2023-10-18T10:17:56.727Z,13.10
2023-10-18T10:20:33.076Z,13.30
2023-10-18T10:23:07.842Z,13.20
2023-10-18T10:26:07.981Z,13.20
2023-10-18T10:28:54.696Z,13.20
2023-10-18T10:31:25.078Z,13.30
2023-10-18T10:34:08.256Z,13.30
2023-10-18T10:36:40.478Z,13.30
2023-10-18T10:39:14.112Z,13.30
2023-10-18T10:41:44.705Z,13.50
2023-10-18T10:44:22.549Z,13.30
2023-10-18T10:46:52.949Z,13.40
2023-10-18T10:49:49.990Z,13.30
2023-10-18T10:52:21.287Z,13.20
2023-10-18T10:54:54.779Z,13.40
2023-10-18T10:57:28.634Z,13.00
2023-10-18T10:59:57.727Z,12.80
2023-10-18T11:02:40.974Z,12.80
2023-10-18T11:05:17.960Z,12.90
2023-10-18T11:07:46.478Z,13.20
2023-10-18T11:10:18.352Z,13.40
2023-10-18T11:12:48.821Z,13.60
2023-10-18T11:15:19.857Z,13.50
2023-10-18T11:17:50.234Z,13.60
2023-10-18T11:20:22.973Z,13.70
2023-10-18T11:22:52.585Z,13.70
2023-10-18T11:25:32.317Z,13.50
2023-10-18T11:28:21.496Z,13.60
2023-10-18T11:30:54.721Z,13.60
2023-10-18T11:33:37.540Z,13.60
2023-10-18T11:36:09.456Z,13.80
2023-10-18T11:38:39.149Z,14.20
2023-10-18T11:41:13.057Z,14.20
2023-10-18T11:43:53.144Z,14.30
2023-10-18T11:46:21.903Z,14.50
2023-10-18T11:48:55.949Z,14.50
2023-10-18T11:51:24.303Z,14.50
2023-10-18T11:53:56.228Z,14.20
2023-10-18T11:56:25.048Z,14.20
2023-10-18T11:59:03.734Z,14.30
2023-10-18T12:01:35.725Z,14.50
2023-10-18T12:04:04.887Z,14.80
2023-10-18T12:06:33.936Z,14.60
2023-10-18T12:09:26.790Z,14.40
2023-10-18T12:11:56.552Z,14.40
2023-10-18T12:14:26.218Z,14.30
2023-10-18T12:16:56.492Z,14.40
2023-10-18T12:19:24.924Z,14.60
2023-10-18T12:22:01.154Z,14.90
2023-10-18T12:24:29.849Z,14.40
2023-10-18T12:26:58.323Z,14.10
2023-10-18T12:29:30.768Z,13.70
2023-10-18T12:32:20.021Z,13.50
2023-10-18T12:34:52.050Z,13.30
2023-10-18T12:37:20.386Z,13.20
2023-10-18T12:39:48.679Z,13.30
2023-10-18T12:42:22.071Z,13.30
2023-10-18T12:44:56.786Z,13.20
2023-10-18T12:47:25.147Z,13.00
2023-10-18T12:49:53.911Z,12.90
2023-10-18T12:52:39.645Z,12.80
2023-10-18T12:55:28.373Z,12.80
2023-10-18T12:57:56.010Z,12.60
2023-10-18T13:00:26.619Z,12.50
2023-10-18T13:03:09.098Z,12.50
2023-10-18T13:05:44.323Z,12.40
2023-10-18T13:08:24.319Z,12.40
2023-10-18T13:11:11.837Z,12.30
2023-10-18T13:13:41.840Z,12.30
2023-10-18T13:16:16.250Z,12.40
2023-10-18T13:18:45.060Z,12.40
2023-10-18T13:21:14.345Z,12.40
2023-10-18T13:23:47.320Z,12.40
2023-10-18T13:26:21.707Z,12.40
2023-10-18T13:28:53.992Z,12.30
2023-10-18T13:31:31.961Z,12.30
2023-10-18T13:34:01.162Z,12.30
2023-10-18T13:36:29.490Z,12.30
2023-10-18T13:38:57.731Z,12.30
2023-10-18T13:41:26.258Z,12.20
2023-10-18T13:43:56.451Z,12.20
2023-10-18T13:46:26.129Z,12.30
2023-10-18T13:48:54.431Z,12.30
2023-10-18T13:51:23.341Z,12.30
2023-10-18T13:53:52.744Z,12.30
2023-10-18T13:56:22.663Z,12.30
2023-10-18T13:58:51.129Z,12.30
2023-10-18T14:01:22.945Z,12.40
2023-10-18T14:03:55.940Z,12.50
2023-10-18T14:06:40.280Z,12.60
2023-10-18T14:09:14.786Z,12.70
2023-10-18T14:11:43.884Z,12.70
2023-10-18T14:14:13.368Z,12.80
2023-10-18T14:16:41.900Z,12.80
2023-10-18T14:19:12.546Z,12.80
2023-10-18T14:21:43.404Z,12.80
2023-10-18T14:24:16.675Z,12.70
2023-10-18T14:26:45.805Z,12.80
2023-10-18T14:29:14.494Z,12.80
2023-10-18T14:31:44.731Z,12.80
2023-10-18T14:34:17.089Z,12.80
2023-10-18T14:36:47.094Z,12.80
2023-10-18T14:39:15.500Z,12.80
2023-10-18T14:41:44.075Z,12.70
2023-10-18T14:44:13.009Z,12.60
2023-10-18T14:46:42.512Z,12.50
2023-10-18T14:49:14.979Z,12.50
2023-10-18T14:51:48.233Z,12.40
2023-10-18T14:54:16.581Z,12.40
2023-10-18T14:56:46.373Z,12.30
2023-10-18T14:59:14.754Z,12.20
2023-10-18T15:01:43.374Z,12.20
2023-10-18T15:04:13.323Z,12.10
2023-10-18T15:06:41.727Z,12.10
2023-10-18T15:09:13.813Z,12.10
2023-10-18T15:11:42.162Z,12.10
2023-10-18T15:14:13.085Z,12.00
2023-10-18T15:16:42.640Z,12.00
2023-10-18T15:19:14.532Z,11.90
2023-10-18T15:21:42.876Z,11.90
2023-10-18T15:24:14.184Z,11.80
2023-10-18T15:26:42.968Z,11.80
2023-10-18T15:29:12.528Z,11.70
2023-10-18T15:31:41.237Z,11.70
2023-10-18T15:34:09.833Z,11.60
2023-10-18T15:36:38.067Z,11.60
2023-10-18T15:39:09.843Z,11.50
2023-10-18T15:41:40.813Z,11.40
2023-10-18T15:44:10.207Z,11.40
2023-10-18T15:46:38.934Z,11.30
2023-10-18T15:49:08.081Z,11.20
2023-10-18T15:51:37.777Z,11.20
2023-10-18T15:54:08.189Z,11.10
2023-10-18T15:56:36.685Z,11.10
2023-10-18T15:59:09.313Z,11.00
2023-10-18T16:01:50.813Z,11.00
2023-10-18T16:04:24.792Z,10.90
2023-10-18T16:06:55.900Z,10.90
2023-10-18T16:09:24.484Z,10.80
2023-10-18T16:11:52.755Z,10.80
2023-10-18T16:14:22.854Z,10.80
2023-10-18T16:16:52.609Z,10.70
2023-10-18T16:19:21.296Z,10.70
2023-10-18T16:21:49.642Z,10.70
2023-10-18T16:24:19.380Z,10.60
2023-10-18T16:26:50.243Z,10.60
2023-10-18T16:29:19.835Z,10.50
2023-10-18T16:31:50.531Z,10.50
2023-10-18T16:34:20.600Z,10.50
2023-10-18T16:36:49.379Z,10.40
2023-10-18T16:39:19.629Z,10.40
2023-10-18T16:41:48.295Z,10.30
2023-10-18T16:44:18.330Z,10.30
2023-10-18T16:46:46.780Z,10.20
2023-10-18T16:49:17.809Z,10.20
2023-10-18T16:51:46.428Z,10.20
2023-10-18T16:54:14.803Z,10.20
2023-10-18T16:56:48.051Z,10.20
2023-10-18T16:59:16.784Z,10.20
2023-10-18T17:01:45.856Z,10.20
2023-10-18T17:04:15.712Z,10.20
2023-10-18T17:06:46.213Z,10.20
2023-10-18T17:09:19.213Z,10.10
2023-10-18T17:11:47.992Z,10.10
2023-10-18T17:14:19.876Z,10.10
2023-10-18T17:16:49.043Z,10.10
2023-10-18T17:19:17.315Z,10.10
2023-10-18T17:21:47.537Z,10.10
2023-10-18T17:24:16.515Z,10.10
2023-10-18T17:26:44.866Z,10.10
2023-10-18T17:29:13.562Z,10.00
2023-10-18T17:31:42.222Z,10.00
2023-10-18T17:34:12.784Z,10.00
2023-10-18T17:36:42.331Z,9.90
2023-10-18T17:39:12.662Z,9.90
2023-10-18T17:41:41.375Z,9.90
2023-10-18T17:44:17.560Z,9.90
2023-10-18T17:46:46.906Z,9.90
2023-10-18T17:49:18.032Z,9.80
2023-10-18T17:51:47.109Z,9.80
2023-10-18T17:54:19.649Z,9.80
2023-10-18T17:56:50.108Z,9.70
2023-10-18T17:59:19.697Z,9.70
2023-10-18T18:01:53.509Z,9.70
2023-10-18T18:04:22.300Z,9.60
2023-10-18T18:06:50.555Z,9.60
2023-10-18T18:09:23.910Z,9.60
2023-10-18T18:11:55.048Z,9.60
2023-10-18T18:14:25.805Z,9.50
2023-10-18T18:16:55.026Z,9.50
2023-10-18T18:19:23.339Z,9.40
2023-10-18T18:21:51.649Z,9.40
2023-10-18T18:24:21.253Z,9.30
2023-10-18T18:26:52.374Z,9.40
2023-10-18T18:29:21.221Z,9.30
2023-10-18T18:31:49.503Z,9.30
2023-10-18T18:34:17.827Z,9.30
2023-10-18T18:36:46.094Z,9.30
2023-10-18T18:39:14.888Z,9.30
2023-10-18T18:41:46.885Z,9.30
2023-10-18T18:44:15.304Z,9.30
2023-10-18T18:46:44.541Z,9.30
2023-10-18T18:49:13.482Z,9.20
2023-10-18T18:51:41.779Z,9.20
2023-10-18T18:54:10.335Z,9.20
2023-10-18T18:56:39.853Z,9.20
2023-10-18T18:59:09.679Z,9.20
2023-10-18T19:01:38.097Z,9.10
2023-10-18T19:04:06.911Z,9.10
2023-10-18T19:06:36.176Z,9.10
2023-10-18T19:09:05.584Z,9.10
2023-10-18T19:11:33.898Z,9.00
2023-10-18T19:14:02.626Z,9.00
2023-10-18T19:16:33.337Z,9.00
2023-10-18T19:19:01.812Z,9.00
2023-10-18T19:21:31.361Z,8.90
2023-10-18T19:24:01.394Z,8.90
2023-10-18T19:26:29.746Z,8.90
2023-10-18T19:28:58.105Z,8.90
2023-10-18T19:31:28.304Z,8.80
2023-10-18T19:33:58.237Z,8.80
2023-10-18T19:36:26.582Z,8.80
2023-10-18T19:38:56.784Z,8.80
2023-10-18T19:41:25.110Z,8.80
2023-10-18T19:43:53.427Z,8.80
2023-10-18T19:46:21.699Z,8.80
2023-10-18T19:48:50.886Z,8.70
2023-10-18T19:51:21.026Z,8.70
2023-10-18T19:53:51.272Z,8.70
2023-10-18T19:56:19.655Z,8.60
2023-10-18T19:58:48.330Z,8.60
2023-10-18T20:01:16.746Z,8.60
2023-10-18T20:03:45.783Z,8.60
2023-10-18T20:06:14.337Z,8.50
2023-10-18T20:08:44.002Z,8.50
2023-10-18T20:11:12.370Z,8.50
2023-10-18T20:13:40.901Z,8.50
2023-10-18T20:16:12.008Z,8.50
2023-10-18T20:18:40.790Z,8.50
2023-10-18T20:21:09.189Z,8.40
2023-10-18T20:23:37.515Z,8.40
2023-10-18T20:26:09.658Z,8.40
2023-10-18T20:28:38.057Z,8.30
2023-10-18T20:31:06.894Z,8.30
2023-10-18T20:33:35.677Z,8.30
2023-10-18T20:36:04.903Z,8.30
2023-10-18T20:38:33.966Z,8.30
2023-10-18T20:41:02.904Z,8.30
2023-10-18T20:43:37.050Z,8.30
2023-10-18T20:46:13.126Z,8.20
2023-10-18T20:48:42.873Z,8.20
2023-10-18T20:51:11.610Z,8.20
2023-10-18T20:53:41.537Z,8.10
2023-10-18T20:56:11.905Z,8.10
2023-10-18T20:58:42.255Z,8.10
2023-10-18T21:01:20.507Z,8.10
2023-10-18T21:03:49.217Z,8.00
2023-10-18T21:06:20.683Z,8.00
2023-10-18T21:08:49.895Z,8.00
2023-10-18T21:11:19.360Z,8.00
2023-10-18T21:13:49.050Z,8.00
2023-10-18T21:16:17.562Z,7.90
2023-10-18T21:18:46.130Z,7.90
2023-10-18T21:21:15.588Z,7.90
2023-10-18T21:23:45.365Z,7.90
2023-10-18T21:26:15.706Z,7.90
2023-10-18T21:28:46.629Z,7.80
2023-10-18T21:31:18.130Z,7.90
2023-10-18T21:33:46.663Z,7.90
2023-10-18T21:36:17.043Z,7.80
2023-10-18T21:38:46.292Z,7.80
2023-10-18T21:41:17.384Z,7.80
2023-10-18T21:43:48.165Z,7.80
2023-10-18T21:46:18.912Z,7.80
2023-10-18T21:48:47.353Z,7.70
2023-10-18T21:51:16.430Z,7.70
2023-10-18T21:53:45.809Z,7.70
2023-10-18T21:56:16.270Z,7.70
2023-10-18T21:58:47.488Z,7.70
2023-10-18T22:01:41.001Z,7.60
2023-10-18T22:04:09.935Z,7.60
2023-10-18T22:06:39.773Z,7.60
2023-10-18T22:09:24.913Z,7.60
2023-10-18T22:11:53.478Z,7.50
2023-10-18T22:14:22.048Z,7.50
2023-10-18T22:16:55.771Z,7.50
2023-10-18T22:19:31.213Z,7.50
2023-10-18T22:22:12.533Z,7.50
2023-10-18T22:24:41.728Z,7.40
2023-10-18T22:27:16.443Z,7.30
2023-10-18T22:29:50.008Z,7.30
2023-10-18T22:32:26.319Z,7.20
2023-10-18T22:34:55.540Z,7.20
2023-10-18T22:37:24.702Z,7.20
2023-10-18T22:39:59.687Z,7.10
2023-10-18T22:42:40.629Z,7.10
2023-10-18T22:45:11.158Z,7.10
2023-10-18T22:47:45.164Z,7.10
2023-10-18T22:50:22.512Z,7.10
2023-10-18T22:52:55.539Z,7.10
2023-10-18T22:55:27.350Z,7.10
2023-10-18T22:57:57.461Z,7.10
2023-10-18T23:00:32.943Z,7.00
2023-10-18T23:03:10.494Z,7.10
2023-10-18T23:05:40.369Z,7.10
2023-10-18T23:08:09.334Z,7.10
2023-10-18T23:10:46.404Z,7.10
2023-10-18T23:13:32.317Z,7.10
2023-10-18T23:16:10.254Z,7.10
2023-10-18T23:18:54.996Z,7.20
2023-10-18T23:21:30.488Z,7.20
2023-10-18T23:24:13.260Z,7.20
2023-10-18T23:26:58.955Z,7.20
2023-10-18T23:29:33.844Z,7.20
2023-10-18T23:32:13.341Z,7.20
2023-10-18T23:34:51.729Z,7.20
2023-10-18T23:37:40.711Z,7.20
2023-10-18T23:40:16.900Z,7.30
2023-10-18T23:42:52.918Z,7.20
2023-10-18T23:45:25.464Z,7.30
2023-10-18T23:48:27.206Z,7.30
2023-10-18T23:51:05.609Z,7.30
2023-10-18T23:53:45.105Z,7.30
2023-10-18T23:56:13.904Z,7.40
2023-10-18T23:58:43.005Z,7.40
